sensor_id;sensor_type;location;lat;lon;timestamp;P1;durP1;ratioP1;P2;durP2;ratioP2
70487;SDS011;57976;48.174;16.370;2023-07-31T00:01:31;5.90;;;1.60;;
70487;SDS011;57976;48.174;16.370;2023-07-31T00:03:36;4.70;;;1.40;;
70487;SDS011;57976;48.174;16.370;2023-07-31T00:05:45;4.00;;;1.40;;
70487;SDS011;57976;48.174;16.370;2023-07-31T00:07:50;4.90;;;1.50;;
70487;SDS011;57976;48.174;16.370;2023-07-31T00:09:55;4.70;;;1.30;;
70487;SDS011;57976;48.174;16.370;2023-07-31T00:12:01;4.20;;;1.50;;
70487;SDS011;57976;48.174;16.370;2023-07-31T00:14:09;4.30;;;1.10;;
70487;SDS011;57976;48.174;16.370;2023-07-31T00:16:14;3.70;;;1.30;;
70487;SDS011;57976;48.174;16.370;2023-07-31T00:18:20;5.50;;;1.50;;
70487;SDS011;57976;48.174;16.370;2023-07-31T00:20:28;4.50;;;1.40;;
70487;SDS011;57976;48.174;16.370;2023-07-31T00:22:36;4.30;;;1.20;;
70487;SDS011;57976;48.174;16.370;2023-07-31T00:24:42;4.80;;;1.50;;
70487;SDS011;57976;48.174;16.370;2023-07-31T00:26:47;4.20;;;1.40;;
70487;SDS011;57976;48.174;16.370;2023-07-31T00:28:55;4.10;;;1.30;;
70487;SDS011;57976;48.174;16.370;2023-07-31T00:31:01;3.80;;;1.30;;
70487;SDS011;57976;48.174;16.370;2023-07-31T00:33:06;4.80;;;1.30;;
70487;SDS011;57976;48.174;16.370;2023-07-31T00:35:13;3.90;;;1.30;;
70487;SDS011;57976;48.174;16.370;2023-07-31T00:37:18;4.70;;;1.30;;
70487;SDS011;57976;48.174;16.370;2023-07-31T00:39:29;4.30;;;1.30;;
70487;SDS011;57976;48.174;16.370;2023-07-31T00:41:35;4.70;;;1.40;;
70487;SDS011;57976;48.174;16.370;2023-07-31T00:43:40;4.20;;;1.40;;
70487;SDS011;57976;48.174;16.370;2023-07-31T00:45:46;6.10;;;1.60;;
70487;SDS011;57976;48.174;16.370;2023-07-31T00:47:51;5.30;;;1.40;;
70487;SDS011;57976;48.174;16.370;2023-07-31T00:49:57;6.00;;;1.40;;
70487;SDS011;57976;48.174;16.370;2023-07-31T00:52:03;4.30;;;1.30;;
70487;SDS011;57976;48.174;16.370;2023-07-31T00:54:10;4.00;;;1.40;;
70487;SDS011;57976;48.174;16.370;2023-07-31T00:56:15;4.50;;;1.30;;
70487;SDS011;57976;48.174;16.370;2023-07-31T00:58:26;4.40;;;1.30;;
70487;SDS011;57976;48.174;16.370;2023-07-31T01:00:33;4.10;;;1.30;;
70487;SDS011;57976;48.174;16.370;2023-07-31T01:05:23;4.10;;;1.30;;
70487;SDS011;57976;48.174;16.370;2023-07-31T01:07:39;3.90;;;1.20;;
70487;SDS011;57976;48.174;16.370;2023-07-31T01:09:52;4.90;;;1.10;;
70487;SDS011;57976;48.174;16.370;2023-07-31T01:12:09;4.80;;;1.30;;
70487;SDS011;57976;48.174;16.370;2023-07-31T01:14:21;5.10;;;1.30;;
70487;SDS011;57976;48.174;16.370;2023-07-31T01:16:26;4.90;;;1.40;;
70487;SDS011;57976;48.174;16.370;2023-07-31T01:18:34;5.30;;;1.50;;
70487;SDS011;57976;48.174;16.370;2023-07-31T01:20:40;3.80;;;1.10;;
70487;SDS011;57976;48.174;16.370;2023-07-31T01:23:08;4.90;;;1.20;;
70487;SDS011;57976;48.174;16.370;2023-07-31T01:25:36;4.50;;;1.40;;
70487;SDS011;57976;48.174;16.370;2023-07-31T01:27:59;4.20;;;1.30;;
70487;SDS011;57976;48.174;16.370;2023-07-31T01:30:10;5.40;;;1.20;;
70487;SDS011;57976;48.174;16.370;2023-07-31T01:32:20;4.70;;;1.30;;
70487;SDS011;57976;48.174;16.370;2023-07-31T01:34:27;3.50;;;1.30;;
70487;SDS011;57976;48.174;16.370;2023-07-31T01:36:34;3.90;;;1.30;;
70487;SDS011;57976;48.174;16.370;2023-07-31T01:38:39;4.00;;;1.10;;
70487;SDS011;57976;48.174;16.370;2023-07-31T01:40:44;4.00;;;1.30;;
70487;SDS011;57976;48.174;16.370;2023-07-31T01:42:54;4.20;;;1.30;;
70487;SDS011;57976;48.174;16.370;2023-07-31T01:44:58;5.20;;;1.30;;
70487;SDS011;57976;48.174;16.370;2023-07-31T01:47:07;4.50;;;1.30;;
70487;SDS011;57976;48.174;16.370;2023-07-31T01:49:12;4.40;;;1.10;;
70487;SDS011;57976;48.174;16.370;2023-07-31T01:51:20;5.00;;;1.50;;
70487;SDS011;57976;48.174;16.370;2023-07-31T01:53:24;4.30;;;1.20;;
70487;SDS011;57976;48.174;16.370;2023-07-31T01:55:29;4.10;;;1.20;;
70487;SDS011;57976;48.174;16.370;2023-07-31T01:57:34;5.50;;;1.50;;
70487;SDS011;57976;48.174;16.370;2023-07-31T01:59:42;5.70;;;1.20;;
70487;SDS011;57976;48.174;16.370;2023-07-31T02:01:47;3.80;;;1.30;;
70487;SDS011;57976;48.174;16.370;2023-07-31T02:03:53;4.60;;;1.20;;
70487;SDS011;57976;48.174;16.370;2023-07-31T02:05:58;4.00;;;1.30;;
70487;SDS011;57976;48.174;16.370;2023-07-31T02:08:03;4.60;;;1.20;;
70487;SDS011;57976;48.174;16.370;2023-07-31T02:10:09;4.80;;;1.50;;
70487;SDS011;57976;48.174;16.370;2023-07-31T02:12:13;3.60;;;1.30;;
70487;SDS011;57976;48.174;16.370;2023-07-31T02:14:18;3.90;;;1.20;;
70487;SDS011;57976;48.174;16.370;2023-07-31T02:16:26;4.10;;;1.30;;
70487;SDS011;57976;48.174;16.370;2023-07-31T02:18:31;5.00;;;1.30;;
70487;SDS011;57976;48.174;16.370;2023-07-31T02:20:39;4.70;;;1.40;;
70487;SDS011;57976;48.174;16.370;2023-07-31T02:22:44;4.60;;;1.60;;
70487;SDS011;57976;48.174;16.370;2023-07-31T02:24:48;4.00;;;1.40;;
70487;SDS011;57976;48.174;16.370;2023-07-31T02:26:57;5.50;;;1.30;;
70487;SDS011;57976;48.174;16.370;2023-07-31T02:29:02;4.20;;;1.30;;
70487;SDS011;57976;48.174;16.370;2023-07-31T02:31:07;3.90;;;1.30;;
70487;SDS011;57976;48.174;16.370;2023-07-31T02:33:12;4.80;;;1.40;;
70487;SDS011;57976;48.174;16.370;2023-07-31T02:35:19;8.10;;;1.50;;
70487;SDS011;57976;48.174;16.370;2023-07-31T02:37:26;4.90;;;1.20;;
70487;SDS011;57976;48.174;16.370;2023-07-31T02:39:31;4.00;;;1.30;;
70487;SDS011;57976;48.174;16.370;2023-07-31T02:41:36;4.70;;;1.40;;
70487;SDS011;57976;48.174;16.370;2023-07-31T02:43:43;4.00;;;1.30;;
70487;SDS011;57976;48.174;16.370;2023-07-31T02:45:52;4.30;;;1.40;;
70487;SDS011;57976;48.174;16.370;2023-07-31T02:47:59;4.40;;;1.20;;
70487;SDS011;57976;48.174;16.370;2023-07-31T02:50:04;4.10;;;1.40;;
70487;SDS011;57976;48.174;16.370;2023-07-31T02:52:10;3.50;;;1.20;;
70487;SDS011;57976;48.174;16.370;2023-07-31T02:54:18;4.50;;;1.40;;
70487;SDS011;57976;48.174;16.370;2023-07-31T02:56:23;4.10;;;1.30;;
70487;SDS011;57976;48.174;16.370;2023-07-31T02:58:31;4.90;;;1.50;;
70487;SDS011;57976;48.174;16.370;2023-07-31T03:00:36;4.60;;;1.40;;
70487;SDS011;57976;48.174;16.370;2023-07-31T03:02:47;4.80;;;1.30;;
70487;SDS011;57976;48.174;16.370;2023-07-31T03:04:55;4.80;;;1.60;;
70487;SDS011;57976;48.174;16.370;2023-07-31T03:07:00;4.50;;;1.30;;
70487;SDS011;57976;48.174;16.370;2023-07-31T03:09:05;4.50;;;1.30;;
70487;SDS011;57976;48.174;16.370;2023-07-31T03:11:09;4.50;;;1.50;;
70487;SDS011;57976;48.174;16.370;2023-07-31T03:13:14;4.00;;;1.30;;
70487;SDS011;57976;48.174;16.370;2023-07-31T03:15:19;4.10;;;1.40;;
70487;SDS011;57976;48.174;16.370;2023-07-31T03:17:24;7.60;;;3.00;;
70487;SDS011;57976;48.174;16.370;2023-07-31T03:19:31;4.60;;;1.60;;
70487;SDS011;57976;48.174;16.370;2023-07-31T03:21:36;5.10;;;1.60;;
70487;SDS011;57976;48.174;16.370;2023-07-31T03:23:41;5.10;;;1.70;;
70487;SDS011;57976;48.174;16.370;2023-07-31T03:25:56;4.20;;;1.50;;
70487;SDS011;57976;48.174;16.370;2023-07-31T03:28:05;4.20;;;1.40;;
70487;SDS011;57976;48.174;16.370;2023-07-31T03:30:10;4.40;;;1.60;;
70487;SDS011;57976;48.174;16.370;2023-07-31T03:32:15;4.50;;;1.50;;
70487;SDS011;57976;48.174;16.370;2023-07-31T03:34:20;6.90;;;2.00;;
70487;SDS011;57976;48.174;16.370;2023-07-31T03:36:26;4.80;;;1.60;;
70487;SDS011;57976;48.174;16.370;2023-07-31T03:43:38;5.00;;;1.80;;
70487;SDS011;57976;48.174;16.370;2023-07-31T03:45:43;7.20;;;1.80;;
70487;SDS011;57976;48.174;16.370;2023-07-31T03:47:48;4.90;;;1.80;;
70487;SDS011;57976;48.174;16.370;2023-07-31T03:49:52;6.00;;;1.90;;
70487;SDS011;57976;48.174;16.370;2023-07-31T03:51:57;5.30;;;2.00;;
70487;SDS011;57976;48.174;16.370;2023-07-31T03:54:02;5.40;;;2.20;;
70487;SDS011;57976;48.174;16.370;2023-07-31T03:56:07;5.00;;;1.90;;
70487;SDS011;57976;48.174;16.370;2023-07-31T03:58:11;6.20;;;1.80;;
70487;SDS011;57976;48.174;16.370;2023-07-31T04:00:16;5.30;;;2.20;;
70487;SDS011;57976;48.174;16.370;2023-07-31T04:02:21;4.90;;;2.10;;
70487;SDS011;57976;48.174;16.370;2023-07-31T04:04:26;5.40;;;1.90;;
70487;SDS011;57976;48.174;16.370;2023-07-31T04:06:30;5.90;;;2.00;;
70487;SDS011;57976;48.174;16.370;2023-07-31T04:08:35;5.40;;;2.10;;
70487;SDS011;57976;48.174;16.370;2023-07-31T04:10:40;5.50;;;2.20;;
70487;SDS011;57976;48.174;16.370;2023-07-31T04:12:44;6.00;;;2.10;;
70487;SDS011;57976;48.174;16.370;2023-07-31T04:14:49;6.90;;;2.00;;
70487;SDS011;57976;48.174;16.370;2023-07-31T04:16:54;5.50;;;2.20;;
70487;SDS011;57976;48.174;16.370;2023-07-31T04:18:59;6.10;;;2.10;;
70487;SDS011;57976;48.174;16.370;2023-07-31T04:21:04;5.90;;;2.10;;
70487;SDS011;57976;48.174;16.370;2023-07-31T04:23:08;5.70;;;2.20;;
70487;SDS011;57976;48.174;16.370;2023-07-31T04:25:13;6.90;;;2.30;;
70487;SDS011;57976;48.174;16.370;2023-07-31T04:27:18;5.00;;;2.20;;
70487;SDS011;57976;48.174;16.370;2023-07-31T04:29:22;5.20;;;1.80;;
70487;SDS011;57976;48.174;16.370;2023-07-31T04:31:27;5.50;;;2.00;;
70487;SDS011;57976;48.174;16.370;2023-07-31T04:33:32;5.50;;;2.00;;
70487;SDS011;57976;48.174;16.370;2023-07-31T04:35:37;5.50;;;1.80;;
70487;SDS011;57976;48.174;16.370;2023-07-31T04:37:41;5.70;;;2.10;;
70487;SDS011;57976;48.174;16.370;2023-07-31T04:39:46;6.30;;;2.10;;
70487;SDS011;57976;48.174;16.370;2023-07-31T04:41:51;4.70;;;2.00;;
70487;SDS011;57976;48.174;16.370;2023-07-31T04:43:55;5.20;;;2.00;;
70487;SDS011;57976;48.174;16.370;2023-07-31T04:46:00;5.80;;;2.20;;
70487;SDS011;57976;48.174;16.370;2023-07-31T04:48:05;5.50;;;1.90;;
70487;SDS011;57976;48.174;16.370;2023-07-31T04:50:10;5.90;;;2.00;;
70487;SDS011;57976;48.174;16.370;2023-07-31T04:52:15;5.70;;;2.00;;
70487;SDS011;57976;48.174;16.370;2023-07-31T04:54:20;4.40;;;1.90;;
70487;SDS011;57976;48.174;16.370;2023-07-31T04:56:28;5.10;;;1.90;;
70487;SDS011;57976;48.174;16.370;2023-07-31T04:58:33;5.10;;;1.80;;
70487;SDS011;57976;48.174;16.370;2023-07-31T05:00:37;6.10;;;2.10;;
70487;SDS011;57976;48.174;16.370;2023-07-31T05:02:42;5.40;;;2.10;;
70487;SDS011;57976;48.174;16.370;2023-07-31T05:04:47;6.00;;;1.90;;
70487;SDS011;57976;48.174;16.370;2023-07-31T05:06:52;6.60;;;1.90;;
70487;SDS011;57976;48.174;16.370;2023-07-31T05:08:56;6.00;;;2.00;;
70487;SDS011;57976;48.174;16.370;2023-07-31T05:11:01;4.80;;;1.90;;
70487;SDS011;57976;48.174;16.370;2023-07-31T05:13:06;6.50;;;2.10;;
70487;SDS011;57976;48.174;16.370;2023-07-31T05:15:11;7.00;;;2.00;;
70487;SDS011;57976;48.174;16.370;2023-07-31T05:17:18;5.60;;;1.90;;
70487;SDS011;57976;48.174;16.370;2023-07-31T05:19:23;5.60;;;2.10;;
70487;SDS011;57976;48.174;16.370;2023-07-31T05:21:27;6.30;;;1.90;;
70487;SDS011;57976;48.174;16.370;2023-07-31T05:23:32;5.00;;;1.70;;
70487;SDS011;57976;48.174;16.370;2023-07-31T05:25:36;4.90;;;1.90;;
70487;SDS011;57976;48.174;16.370;2023-07-31T05:27:41;5.10;;;1.90;;
70487;SDS011;57976;48.174;16.370;2023-07-31T05:29:46;5.50;;;1.80;;
70487;SDS011;57976;48.174;16.370;2023-07-31T05:31:51;4.30;;;1.80;;
70487;SDS011;57976;48.174;16.370;2023-07-31T05:33:55;5.30;;;1.90;;
70487;SDS011;57976;48.174;16.370;2023-07-31T05:36:00;5.40;;;1.90;;
70487;SDS011;57976;48.174;16.370;2023-07-31T05:38:05;6.00;;;1.90;;
70487;SDS011;57976;48.174;16.370;2023-07-31T05:40:11;5.20;;;1.90;;
70487;SDS011;57976;48.174;16.370;2023-07-31T05:42:16;5.40;;;2.00;;
70487;SDS011;57976;48.174;16.370;2023-07-31T05:44:21;6.70;;;2.00;;
70487;SDS011;57976;48.174;16.370;2023-07-31T05:46:26;6.40;;;2.10;;
70487;SDS011;57976;48.174;16.370;2023-07-31T05:48:31;4.60;;;1.80;;
70487;SDS011;57976;48.174;16.370;2023-07-31T05:50:36;5.90;;;1.70;;
70487;SDS011;57976;48.174;16.370;2023-07-31T05:52:40;5.00;;;1.80;;
70487;SDS011;57976;48.174;16.370;2023-07-31T05:54:45;5.60;;;1.90;;
70487;SDS011;57976;48.174;16.370;2023-07-31T05:56:50;5.40;;;1.70;;
70487;SDS011;57976;48.174;16.370;2023-07-31T05:58:54;5.40;;;1.70;;
70487;SDS011;57976;48.174;16.370;2023-07-31T06:00:59;6.40;;;1.90;;
70487;SDS011;57976;48.174;16.370;2023-07-31T06:03:07;5.80;;;2.00;;
70487;SDS011;57976;48.174;16.370;2023-07-31T06:05:11;4.80;;;2.00;;
70487;SDS011;57976;48.174;16.370;2023-07-31T06:07:16;5.10;;;1.90;;
70487;SDS011;57976;48.174;16.370;2023-07-31T06:09:21;4.50;;;1.70;;
70487;SDS011;57976;48.174;16.370;2023-07-31T06:11:25;5.20;;;1.80;;
70487;SDS011;57976;48.174;16.370;2023-07-31T06:13:30;6.40;;;1.80;;
70487;SDS011;57976;48.174;16.370;2023-07-31T06:15:35;5.40;;;1.90;;
70487;SDS011;57976;48.174;16.370;2023-07-31T06:17:40;5.30;;;1.70;;
70487;SDS011;57976;48.174;16.370;2023-07-31T06:19:44;5.00;;;1.70;;
70487;SDS011;57976;48.174;16.370;2023-07-31T06:21:49;5.80;;;1.90;;
70487;SDS011;57976;48.174;16.370;2023-07-31T06:23:54;4.90;;;1.60;;
70487;SDS011;57976;48.174;16.370;2023-07-31T06:25:58;5.10;;;1.80;;
70487;SDS011;57976;48.174;16.370;2023-07-31T06:28:03;4.70;;;2.00;;
70487;SDS011;57976;48.174;16.370;2023-07-31T06:30:09;6.40;;;2.10;;
70487;SDS011;57976;48.174;16.370;2023-07-31T06:32:14;4.90;;;1.90;;
70487;SDS011;57976;48.174;16.370;2023-07-31T06:34:19;5.20;;;1.80;;
70487;SDS011;57976;48.174;16.370;2023-07-31T06:36:24;4.60;;;1.90;;
70487;SDS011;57976;48.174;16.370;2023-07-31T06:38:29;7.80;;;1.80;;
70487;SDS011;57976;48.174;16.370;2023-07-31T06:40:35;5.20;;;1.70;;
70487;SDS011;57976;48.174;16.370;2023-07-31T06:42:40;5.20;;;1.70;;
70487;SDS011;57976;48.174;16.370;2023-07-31T06:44:45;5.80;;;1.70;;
70487;SDS011;57976;48.174;16.370;2023-07-31T06:46:49;4.70;;;1.80;;
70487;SDS011;57976;48.174;16.370;2023-07-31T06:48:54;6.30;;;1.90;;
70487;SDS011;57976;48.174;16.370;2023-07-31T06:51:00;5.40;;;1.70;;
70487;SDS011;57976;48.174;16.370;2023-07-31T06:53:05;5.10;;;1.70;;
70487;SDS011;57976;48.174;16.370;2023-07-31T06:55:17;6.40;;;2.00;;
70487;SDS011;57976;48.174;16.370;2023-07-31T06:57:23;4.80;;;1.50;;
70487;SDS011;57976;48.174;16.370;2023-07-31T06:59:27;6.40;;;1.70;;
70487;SDS011;57976;48.174;16.370;2023-07-31T07:01:32;5.40;;;1.60;;
70487;SDS011;57976;48.174;16.370;2023-07-31T07:03:37;4.90;;;1.50;;
70487;SDS011;57976;48.174;16.370;2023-07-31T07:05:41;5.30;;;1.80;;
70487;SDS011;57976;48.174;16.370;2023-07-31T07:07:48;7.20;;;1.70;;
70487;SDS011;57976;48.174;16.370;2023-07-31T07:09:53;4.40;;;1.60;;
70487;SDS011;57976;48.174;16.370;2023-07-31T07:11:58;5.40;;;1.70;;
70487;SDS011;57976;48.174;16.370;2023-07-31T07:14:03;4.20;;;1.50;;
70487;SDS011;57976;48.174;16.370;2023-07-31T07:16:07;7.00;;;1.50;;
70487;SDS011;57976;48.174;16.370;2023-07-31T07:18:12;4.50;;;1.40;;
70487;SDS011;57976;48.174;16.370;2023-07-31T07:20:17;4.70;;;1.50;;
70487;SDS011;57976;48.174;16.370;2023-07-31T07:22:22;5.80;;;1.20;;
70487;SDS011;57976;48.174;16.370;2023-07-31T07:24:26;4.40;;;1.40;;
70487;SDS011;57976;48.174;16.370;2023-07-31T07:26:31;5.50;;;1.20;;
70487;SDS011;57976;48.174;16.370;2023-07-31T07:28:36;5.20;;;1.20;;
70487;SDS011;57976;48.174;16.370;2023-07-31T07:30:42;4.30;;;1.30;;
70487;SDS011;57976;48.174;16.370;2023-07-31T07:32:47;5.20;;;1.20;;
70487;SDS011;57976;48.174;16.370;2023-07-31T07:34:52;5.20;;;1.60;;
70487;SDS011;57976;48.174;16.370;2023-07-31T07:36:58;6.20;;;1.70;;
70487;SDS011;57976;48.174;16.370;2023-07-31T07:39:02;5.00;;;1.50;;
70487;SDS011;57976;48.174;16.370;2023-07-31T07:41:07;4.40;;;1.50;;
70487;SDS011;57976;48.174;16.370;2023-07-31T07:43:12;5.40;;;1.40;;
70487;SDS011;57976;48.174;16.370;2023-07-31T07:45:16;4.90;;;1.50;;
70487;SDS011;57976;48.174;16.370;2023-07-31T07:47:21;5.20;;;1.40;;
70487;SDS011;57976;48.174;16.370;2023-07-31T07:49:28;4.50;;;1.30;;
70487;SDS011;57976;48.174;16.370;2023-07-31T07:51:33;4.90;;;1.50;;
70487;SDS011;57976;48.174;16.370;2023-07-31T07:53:37;6.10;;;1.60;;
70487;SDS011;57976;48.174;16.370;2023-07-31T07:55:42;4.40;;;1.50;;
70487;SDS011;57976;48.174;16.370;2023-07-31T07:57:47;6.30;;;1.50;;
70487;SDS011;57976;48.174;16.370;2023-07-31T07:59:52;4.50;;;1.30;;
70487;SDS011;57976;48.174;16.370;2023-07-31T08:01:57;5.10;;;1.50;;
70487;SDS011;57976;48.174;16.370;2023-07-31T08:04:01;6.40;;;1.30;;
70487;SDS011;57976;48.174;16.370;2023-07-31T08:06:06;4.70;;;1.50;;
70487;SDS011;57976;48.174;16.370;2023-07-31T08:08:13;5.70;;;1.50;;
70487;SDS011;57976;48.174;16.370;2023-07-31T08:10:18;4.80;;;1.50;;
70487;SDS011;57976;48.174;16.370;2023-07-31T08:12:23;4.90;;;1.50;;
70487;SDS011;57976;48.174;16.370;2023-07-31T08:14:28;4.70;;;1.50;;
70487;SDS011;57976;48.174;16.370;2023-07-31T08:16:35;5.80;;;1.70;;
70487;SDS011;57976;48.174;16.370;2023-07-31T08:18:40;4.50;;;1.30;;
70487;SDS011;57976;48.174;16.370;2023-07-31T08:20:45;5.10;;;1.40;;
70487;SDS011;57976;48.174;16.370;2023-07-31T08:22:50;4.70;;;1.40;;
70487;SDS011;57976;48.174;16.370;2023-07-31T08:24:54;5.10;;;1.30;;
70487;SDS011;57976;48.174;16.370;2023-07-31T08:26:59;5.80;;;1.50;;
70487;SDS011;57976;48.174;16.370;2023-07-31T08:29:04;4.80;;;1.30;;
70487;SDS011;57976;48.174;16.370;2023-07-31T08:31:09;4.80;;;1.40;;
70487;SDS011;57976;48.174;16.370;2023-07-31T08:33:13;4.40;;;1.40;;
70487;SDS011;57976;48.174;16.370;2023-07-31T08:35:18;5.60;;;1.40;;
70487;SDS011;57976;48.174;16.370;2023-07-31T08:37:23;5.50;;;1.40;;
70487;SDS011;57976;48.174;16.370;2023-07-31T08:39:28;5.10;;;1.20;;
70487;SDS011;57976;48.174;16.370;2023-07-31T08:41:33;6.70;;;1.50;;
70487;SDS011;57976;48.174;16.370;2023-07-31T08:43:42;6.70;;;1.80;;
70487;SDS011;57976;48.174;16.370;2023-07-31T08:45:47;5.20;;;1.50;;
70487;SDS011;57976;48.174;16.370;2023-07-31T08:47:52;5.40;;;1.60;;
70487;SDS011;57976;48.174;16.370;2023-07-31T08:49:58;7.00;;;1.40;;
70487;SDS011;57976;48.174;16.370;2023-07-31T08:52:05;4.10;;;1.20;;
70487;SDS011;57976;48.174;16.370;2023-07-31T08:54:10;6.60;;;1.50;;
70487;SDS011;57976;48.174;16.370;2023-07-31T08:56:15;4.50;;;1.30;;
70487;SDS011;57976;48.174;16.370;2023-07-31T08:58:20;5.60;;;1.30;;
70487;SDS011;57976;48.174;16.370;2023-07-31T09:00:26;4.30;;;1.40;;
70487;SDS011;57976;48.174;16.370;2023-07-31T09:02:34;6.10;;;1.70;;
70487;SDS011;57976;48.174;16.370;2023-07-31T09:04:41;5.70;;;1.40;;
70487;SDS011;57976;48.174;16.370;2023-07-31T09:06:46;6.10;;;1.60;;
70487;SDS011;57976;48.174;16.370;2023-07-31T09:08:52;5.60;;;1.60;;
70487;SDS011;57976;48.174;16.370;2023-07-31T09:10:58;5.90;;;1.40;;
70487;SDS011;57976;48.174;16.370;2023-07-31T09:13:04;5.30;;;1.30;;
70487;SDS011;57976;48.174;16.370;2023-07-31T09:15:14;4.30;;;1.40;;
70487;SDS011;57976;48.174;16.370;2023-07-31T09:17:37;5.60;;;1.60;;
70487;SDS011;57976;48.174;16.370;2023-07-31T09:19:42;4.70;;;1.40;;
70487;SDS011;57976;48.174;16.370;2023-07-31T09:21:48;5.00;;;1.50;;
70487;SDS011;57976;48.174;16.370;2023-07-31T09:23:53;5.00;;;1.40;;
70487;SDS011;57976;48.174;16.370;2023-07-31T09:25:58;6.00;;;1.70;;
70487;SDS011;57976;48.174;16.370;2023-07-31T09:28:03;5.70;;;1.60;;
70487;SDS011;57976;48.174;16.370;2023-07-31T09:30:10;5.00;;;1.50;;
70487;SDS011;57976;48.174;16.370;2023-07-31T09:32:16;5.40;;;1.60;;
70487;SDS011;57976;48.174;16.370;2023-07-31T09:34:27;4.60;;;1.60;;
70487;SDS011;57976;48.174;16.370;2023-07-31T09:36:33;5.10;;;1.70;;
70487;SDS011;57976;48.174;16.370;2023-07-31T09:38:44;5.40;;;1.60;;
70487;SDS011;57976;48.174;16.370;2023-07-31T09:40:49;6.00;;;1.60;;
70487;SDS011;57976;48.174;16.370;2023-07-31T09:42:54;5.20;;;1.60;;
70487;SDS011;57976;48.174;16.370;2023-07-31T09:45:10;5.50;;;1.50;;
70487;SDS011;57976;48.174;16.370;2023-07-31T09:47:24;6.40;;;1.60;;
70487;SDS011;57976;48.174;16.370;2023-07-31T09:49:29;4.60;;;1.50;;
70487;SDS011;57976;48.174;16.370;2023-07-31T09:51:34;6.20;;;1.70;;
70487;SDS011;57976;48.174;16.370;2023-07-31T09:53:40;4.70;;;1.50;;
70487;SDS011;57976;48.174;16.370;2023-07-31T09:55:52;5.20;;;1.60;;
70487;SDS011;57976;48.174;16.370;2023-07-31T09:57:59;5.00;;;1.60;;
70487;SDS011;57976;48.174;16.370;2023-07-31T10:00:06;5.70;;;1.70;;
70487;SDS011;57976;48.174;16.370;2023-07-31T10:02:20;6.00;;;1.40;;
70487;SDS011;57976;48.174;16.370;2023-07-31T10:04:27;5.00;;;1.30;;
70487;SDS011;57976;48.174;16.370;2023-07-31T10:06:33;4.70;;;1.50;;
70487;SDS011;57976;48.174;16.370;2023-07-31T10:08:39;5.60;;;1.70;;
70487;SDS011;57976;48.174;16.370;2023-07-31T10:10:46;5.80;;;1.40;;
70487;SDS011;57976;48.174;16.370;2023-07-31T10:12:53;4.50;;;1.60;;
70487;SDS011;57976;48.174;16.370;2023-07-31T10:14:59;4.80;;;1.60;;
70487;SDS011;57976;48.174;16.370;2023-07-31T10:17:04;5.00;;;1.40;;
70487;SDS011;57976;48.174;16.370;2023-07-31T10:19:11;4.80;;;1.30;;
70487;SDS011;57976;48.174;16.370;2023-07-31T10:21:15;4.50;;;1.40;;
70487;SDS011;57976;48.174;16.370;2023-07-31T10:23:20;5.70;;;1.40;;
70487;SDS011;57976;48.174;16.370;2023-07-31T10:25:26;5.50;;;1.60;;
70487;SDS011;57976;48.174;16.370;2023-07-31T10:27:31;4.60;;;1.40;;
70487;SDS011;57976;48.174;16.370;2023-07-31T10:29:41;5.30;;;1.40;;
70487;SDS011;57976;48.174;16.370;2023-07-31T10:31:48;5.50;;;1.30;;
70487;SDS011;57976;48.174;16.370;2023-07-31T10:33:53;5.20;;;1.60;;
70487;SDS011;57976;48.174;16.370;2023-07-31T10:36:15;5.00;;;1.40;;
70487;SDS011;57976;48.174;16.370;2023-07-31T10:38:23;5.10;;;1.50;;
70487;SDS011;57976;48.174;16.370;2023-07-31T10:40:36;4.40;;;1.60;;
70487;SDS011;57976;48.174;16.370;2023-07-31T10:42:46;4.90;;;1.60;;
70487;SDS011;57976;48.174;16.370;2023-07-31T10:44:56;6.50;;;1.70;;
70487;SDS011;57976;48.174;16.370;2023-07-31T10:47:02;5.90;;;1.70;;
70487;SDS011;57976;48.174;16.370;2023-07-31T10:49:07;5.90;;;1.50;;
70487;SDS011;57976;48.174;16.370;2023-07-31T10:51:12;5.50;;;1.60;;
70487;SDS011;57976;48.174;16.370;2023-07-31T10:53:23;4.50;;;1.30;;
70487;SDS011;57976;48.174;16.370;2023-07-31T10:55:30;5.50;;;1.70;;
70487;SDS011;57976;48.174;16.370;2023-07-31T10:57:36;5.10;;;1.60;;
70487;SDS011;57976;48.174;16.370;2023-07-31T10:59:40;6.30;;;1.50;;
70487;SDS011;57976;48.174;16.370;2023-07-31T11:01:51;5.50;;;1.60;;
70487;SDS011;57976;48.174;16.370;2023-07-31T11:03:57;4.30;;;1.50;;
70487;SDS011;57976;48.174;16.370;2023-07-31T11:06:02;4.40;;;1.40;;
70487;SDS011;57976;48.174;16.370;2023-07-31T11:08:11;4.40;;;1.40;;
70487;SDS011;57976;48.174;16.370;2023-07-31T11:10:18;4.60;;;1.40;;
70487;SDS011;57976;48.174;16.370;2023-07-31T11:12:27;5.00;;;1.50;;
70487;SDS011;57976;48.174;16.370;2023-07-31T11:14:33;4.30;;;1.40;;
70487;SDS011;57976;48.174;16.370;2023-07-31T11:16:37;4.70;;;1.30;;
70487;SDS011;57976;48.174;16.370;2023-07-31T11:18:45;4.30;;;1.30;;
70487;SDS011;57976;48.174;16.370;2023-07-31T11:20:50;5.40;;;1.60;;
70487;SDS011;57976;48.174;16.370;2023-07-31T11:22:57;4.80;;;1.60;;
70487;SDS011;57976;48.174;16.370;2023-07-31T11:25:04;4.00;;;1.40;;
70487;SDS011;57976;48.174;16.370;2023-07-31T11:27:09;4.50;;;1.50;;
70487;SDS011;57976;48.174;16.370;2023-07-31T11:29:14;6.10;;;1.40;;
70487;SDS011;57976;48.174;16.370;2023-07-31T11:31:19;4.70;;;1.40;;
70487;SDS011;57976;48.174;16.370;2023-07-31T11:33:24;4.00;;;1.50;;
70487;SDS011;57976;48.174;16.370;2023-07-31T11:35:29;6.00;;;1.80;;
70487;SDS011;57976;48.174;16.370;2023-07-31T11:37:41;7.30;;;1.90;;
70487;SDS011;57976;48.174;16.370;2023-07-31T11:39:59;5.90;;;1.70;;
70487;SDS011;57976;48.174;16.370;2023-07-31T11:42:05;4.90;;;1.50;;
70487;SDS011;57976;48.174;16.370;2023-07-31T11:44:10;4.70;;;1.40;;
70487;SDS011;57976;48.174;16.370;2023-07-31T11:46:31;4.90;;;1.50;;
70487;SDS011;57976;48.174;16.370;2023-07-31T11:48:36;4.40;;;1.30;;
70487;SDS011;57976;48.174;16.370;2023-07-31T11:50:41;4.50;;;1.40;;
70487;SDS011;57976;48.174;16.370;2023-07-31T11:52:46;5.10;;;1.60;;
70487;SDS011;57976;48.174;16.370;2023-07-31T11:54:52;4.40;;;1.60;;
70487;SDS011;57976;48.174;16.370;2023-07-31T11:56:57;5.30;;;1.30;;
70487;SDS011;57976;48.174;16.370;2023-07-31T11:59:03;5.40;;;1.40;;
70487;SDS011;57976;48.174;16.370;2023-07-31T12:01:07;5.00;;;1.60;;
70487;SDS011;57976;48.174;16.370;2023-07-31T12:03:13;5.60;;;1.50;;
70487;SDS011;57976;48.174;16.370;2023-07-31T12:05:18;4.30;;;1.30;;
70487;SDS011;57976;48.174;16.370;2023-07-31T12:07:25;4.90;;;1.50;;
70487;SDS011;57976;48.174;16.370;2023-07-31T12:09:29;4.40;;;1.30;;
70487;SDS011;57976;48.174;16.370;2023-07-31T12:11:43;3.70;;;1.20;;
70487;SDS011;57976;48.174;16.370;2023-07-31T12:13:48;4.40;;;1.20;;
70487;SDS011;57976;48.174;16.370;2023-07-31T12:15:55;4.80;;;1.30;;
70487;SDS011;57976;48.174;16.370;2023-07-31T12:18:01;4.50;;;1.40;;
70487;SDS011;57976;48.174;16.370;2023-07-31T12:20:09;5.10;;;1.60;;
70487;SDS011;57976;48.174;16.370;2023-07-31T12:22:15;4.40;;;1.20;;
70487;SDS011;57976;48.174;16.370;2023-07-31T12:24:20;4.90;;;1.50;;
70487;SDS011;57976;48.174;16.370;2023-07-31T12:26:25;4.90;;;1.30;;
70487;SDS011;57976;48.174;16.370;2023-07-31T12:28:39;4.30;;;1.50;;
70487;SDS011;57976;48.174;16.370;2023-07-31T12:30:45;4.70;;;1.40;;
70487;SDS011;57976;48.174;16.370;2023-07-31T12:32:50;4.30;;;1.50;;
70487;SDS011;57976;48.174;16.370;2023-07-31T12:34:55;4.90;;;1.60;;
70487;SDS011;57976;48.174;16.370;2023-07-31T12:37:04;5.80;;;1.70;;